Time;durP1;ratioP1;P1;durP2;ratioP2;P2;SDS_P1;SDS_P2;PMS_P1;PMS_P2;Temp;Humidity;BMP_temperature;BMP_pressure;BME280_temperature;BME280_humidity;BME280_pressure;Samples;Min_cycle;Max_cycle;Signal;HPM_P1;HPM_P2
2021/07/09 00:01:53;;;;;;;10.30;9.00;;;;;;;;;;5059458;28;20460;-72
2021/07/09 00:04:21;;;;;;;14.30;9.47;;;;;;;;;;5059281;28;20468;-72
2021/07/09 00:06:52;;;;;;;9.70;8.70;;;;;;;;;;5059982;28;20885;-72
2021/07/09 00:09:21;;;;;;;9.53;8.63;;;;;;;;;;5059842;28;20530;-71
2021/07/09 00:11:51;;;;;;;8.97;8.10;;;;;;;;;;5059607;28;20464;-71
2021/07/09 00:14:21;;;;;;;13.33;9.10;;;;;;;;;;5059234;28;20451;-71
2021/07/09 00:16:49;;;;;;;9.80;8.80;;;;;;;;;;5059030;28;20485;-72
2021/07/09 00:19:18;;;;;;;9.83;8.83;;;;;;;;;;5059294;28;20550;-70
2021/07/09 00:21:46;;;;;;;10.57;8.17;;;;;;;;;;5058854;28;20466;-72
2021/07/09 00:24:16;;;;;;;10.67;8.47;;;;;;;;;;5059129;28;20468;-72
2021/07/09 00:26:44;;;;;;;9.70;8.77;;;;;;;;;;5059280;28;20781;-72
2021/07/09 00:29:13;;;;;;;13.07;9.70;;;;;;;;;;5059480;28;20527;-72
2021/07/09 00:31:41;;;;;;;10.17;9.17;;;;;;;;;;5059859;28;20860;-72
2021/07/09 00:34:10;;;;;;;10.07;7.90;;;;;;;;;;5058253;28;20587;-72
2021/07/09 00:36:38;;;;;;;15.00;8.63;;;;;;;;;;5059081;28;20752;-72
2021/07/09 00:39:08;;;;;;;8.80;7.90;;;;;;;;;;5059223;28;20496;-73
2021/07/09 00:41:36;;;;;;;10.10;8.03;;;;;;;;;;5058883;28;20457;-72
2021/07/09 00:44:04;;;;;;;9.30;8.50;;;;;;;;;;5058529;28;20460;-71
2021/07/09 00:46:37;;;;;;;10.27;9.00;;;;;;;;;;5058838;28;20505;-71
2021/07/09 00:49:05;;;;;;;13.17;8.73;;;;;;;;;;5058719;28;20477;-72
2021/07/09 00:51:33;;;;;;;10.23;8.50;;;;;;;;;;5058665;28;20466;-72
2021/07/09 00:54:01;;;;;;;9.67;8.77;;;;;;;;;;5058668;28;20663;-72
2021/07/09 00:56:29;;;;;;;11.97;8.80;;;;;;;;;;5058580;28;20485;-72
2021/07/09 00:58:59;;;;;;;9.97;8.97;;;;;;;;;;5057601;28;20502;-72
2021/07/09 01:01:27;;;;;;;9.47;8.57;;;;;;;;;;5058793;28;20458;-72
2021/07/09 01:03:56;;;;;;;10.53;9.50;;;;;;;;;;5057971;28;20752;-72
2021/07/09 01:06:24;;;;;;;9.73;8.73;;;;;;;;;;5058535;28;20489;-72
2021/07/09 01:08:52;;;;;;;9.03;8.13;;;;;;;;;;5057711;28;20465;-72
2021/07/09 01:11:24;;;;;;;10.77;7.97;;;;;;;;;;5058691;28;20462;-72
2021/07/09 01:13:52;;;;;;;11.10;8.70;;;;;;;;;;5058098;28;20536;-72
2021/07/09 01:16:20;;;;;;;10.47;9.47;;;;;;;;;;5057933;28;20818;-71
2021/07/09 01:18:47;;;;;;;13.43;9.00;;;;;;;;;;5057707;28;20449;-71
2021/07/09 01:21:17;;;;;;;13.13;9.83;;;;;;;;;;5057975;28;20531;-71
2021/07/09 01:23:45;;;;;;;12.13;9.77;;;;;;;;;;5058085;28;20496;-72
2021/07/09 01:26:14;;;;;;;10.67;8.37;;;;;;;;;;5058143;28;20792;-72
2021/07/09 01:28:42;;;;;;;10.33;9.43;;;;;;;;;;5058582;28;20569;-71
2021/07/09 01:31:10;;;;;;;12.20;9.20;;;;;;;;;;5058349;28;20727;-72
2021/07/09 01:33:38;;;;;;;9.37;8.43;;;;;;;;;;5058068;28;20453;-72
2021/07/09 01:36:06;;;;;;;13.77;9.53;;;;;;;;;;5057886;28;20497;-71
2021/07/09 01:38:34;;;;;;;10.00;9.10;;;;;;;;;;5058159;28;20935;-72
2021/07/09 01:41:02;;;;;;;9.43;8.40;;;;;;;;;;5058315;28;20799;-72
2021/07/09 01:43:31;;;;;;;7.87;7.17;;;;;;;;;;5058218;28;20865;-72
2021/07/09 01:46:00;;;;;;;11.80;7.67;;;;;;;;;;5057526;28;20471;-72
2021/07/09 01:48:27;;;;;;;9.57;7.23;;;;;;;;;;5058104;28;20555;-71
2021/07/09 01:50:55;;;;;;;12.27;7.73;;;;;;;;;;5058077;28;20523;-71
2021/07/09 01:53:23;;;;;;;8.20;6.60;;;;;;;;;;5057786;28;20750;-72
2021/07/09 01:55:51;;;;;;;9.03;7.90;;;;;;;;;;5058358;28;20804;-72
2021/07/09 01:58:19;;;;;;;8.43;6.27;;;;;;;;;;5057232;28;20535;-72
2021/07/09 02:00:48;;;;;;;6.67;6.07;;;;;;;;;;5057439;28;20454;-72
2021/07/09 02:03:16;;;;;;;7.10;5.60;;;;;;;;;;5057417;28;20523;-71
2021/07/09 02:05:43;;;;;;;6.20;4.93;;;;;;;;;;5057859;28;20484;-72
2021/07/09 02:08:11;;;;;;;9.63;6.13;;;;;;;;;;5057620;28;20457;-72
2021/07/09 02:10:40;;;;;;;6.53;5.00;;;;;;;;;;5057728;28;20522;-72
2021/07/09 02:13:08;;;;;;;11.20;5.40;;;;;;;;;;5057280;28;20534;-71
2021/07/09 02:15:37;;;;;;;9.30;5.27;;;;;;;;;;5056998;28;20450;-72
2021/07/09 02:18:06;;;;;;;8.77;5.20;;;;;;;;;;5058193;28;20523;-72
2021/07/09 02:20:36;;;;;;;6.70;5.20;;;;;;;;;;5057983;28;20527;-72
2021/07/09 02:23:07;;;;;;;8.87;5.37;;;;;;;;;;5057020;28;20442;-72
2021/07/09 02:25:35;;;;;;;8.10;5.83;;;;;;;;;;5056970;28;20550;-72
2021/07/09 02:28:03;;;;;;;10.63;6.30;;;;;;;;;;5056577;28;20457;-72
2021/07/09 02:30:31;;;;;;;16.67;8.00;;;;;;;;;;5057283;28;20946;-71
2021/07/09 02:32:59;;;;;;;10.80;4.90;;;;;;;;;;5057229;28;20457;-72
2021/07/09 02:35:33;;;;;;;5.90;4.80;;;;;;;;;;5056806;28;20550;-72
2021/07/09 02:38:01;;;;;;;7.67;5.67;;;;;;;;;;5056995;28;20847;-71
2021/07/09 02:40:31;;;;;;;9.30;5.73;;;;;;;;;;5057307;28;20788;-72
2021/07/09 02:43:00;;;;;;;10.67;5.47;;;;;;;;;;5056362;28;20644;-72
2021/07/09 02:45:28;;;;;;;6.03;5.00;;;;;;;;;;5056159;28;20450;-71
2021/07/09 02:47:56;;;;;;;6.80;5.43;;;;;;;;;;5056558;28;20749;-71
2021/07/09 02:50:24;;;;;;;10.30;6.10;;;;;;;;;;5056015;28;20449;-71
2021/07/09 02:52:54;;;;;;;11.57;5.63;;;;;;;;;;5056019;28;20526;-71
2021/07/09 02:55:22;;;;;;;11.30;5.70;;;;;;;;;;5055592;28;20453;-70
2021/07/09 02:57:50;;;;;;;6.07;5.57;;;;;;;;;;5055231;28;20481;-71
2021/07/09 03:00:21;;;;;;;11.13;6.87;;;;;;;;;;5051743;28;20451;-72
2021/07/09 03:02:50;;;;;;;7.30;6.07;;;;;;;;;;5055643;28;20484;-71
2021/07/09 03:05:31;;;;;;;9.60;7.23;;;;;;;;;;5046179;28;20504;-71
2021/07/09 03:08:01;;;;;;;8.30;6.30;;;;;;;;;;5034938;28;20466;-71
2021/07/09 03:10:29;;;;;;;7.20;6.33;;;;;;;;;;5035976;28;20727;-71
2021/07/09 03:13:04;;;;;;;7.83;6.07;;;;;;;;;;5035256;28;20550;-71
2021/07/09 03:15:42;;;;;;;11.80;6.33;;;;;;;;;;5034646;28;20450;-71
2021/07/09 03:18:10;;;;;;;8.60;5.53;;;;;;;;;;5049815;28;20524;-72
2021/07/09 03:20:38;;;;;;;9.20;6.83;;;;;;;;;;5056224;28;20461;-71
2021/07/09 03:23:17;;;;;;;9.87;6.37;;;;;;;;;;5056198;28;20493;-71
2021/07/09 03:25:57;;;;;;;6.90;6.30;;;;;;;;;;5054434;28;20967;-71
2021/07/09 03:28:27;;;;;;;11.03;7.90;;;;;;;;;;5055114;28;20434;-72
2021/07/09 03:30:56;;;;;;;10.40;6.90;;;;;;;;;;5055665;28;20867;-72
2021/07/09 03:33:28;;;;;;;12.07;6.83;;;;;;;;;;5055454;28;20592;-72
2021/07/09 03:35:55;;;;;;;6.83;6.13;;;;;;;;;;5055041;28;20458;-72
2021/07/09 03:38:25;;;;;;;17.27;7.13;;;;;;;;;;5056059;28;20484;-73
2021/07/09 03:40:52;;;;;;;16.00;6.93;;;;;;;;;;5056174;28;20523;-73
2021/07/09 03:43:20;;;;;;;6.93;6.00;;;;;;;;;;5055830;28;20488;-72
2021/07/09 03:45:50;;;;;;;10.93;7.10;;;;;;;;;;5056163;28;20446;-72
2021/07/09 03:48:18;;;;;;;8.47;6.83;;;;;;;;;;5056213;28;20519;-72
2021/07/09 03:50:46;;;;;;;8.67;6.07;;;;;;;;;;5055303;28;20481;-72
2021/07/09 03:53:13;;;;;;;9.80;7.00;;;;;;;;;;5055404;28;20523;-72
2021/07/09 03:55:42;;;;;;;8.60;6.70;;;;;;;;;;5056005;28;20951;-72
2021/07/09 03:58:10;;;;;;;11.63;6.47;;;;;;;;;;5056114;28;20516;-72
2021/07/09 04:00:41;;;;;;;18.07;7.77;;;;;;;;;;5055900;28;20484;-72
2021/07/09 04:03:09;;;;;;;7.73;6.57;;;;;;;;;;5055870;28;20535;-72
2021/07/09 04:05:37;;;;;;;8.30;6.57;;;;;;;;;;5055600;28;20458;-73
2021/07/09 04:08:05;;;;;;;11.70;7.00;;;;;;;;;;5055169;28;20507;-72
2021/07/09 04:10:33;;;;;;;11.57;7.10;;;;;;;;;;5055216;28;20547;-72
2021/07/09 04:13:02;;;;;;;9.17;6.90;;;;;;;;;;5055685;28;20465;-72
2021/07/09 04:15:34;;;;;;;11.70;7.77;;;;;;;;;;5054940;28;20450;-72
2021/07/09 04:18:01;;;;;;;8.27;6.53;;;;;;;;;;5054817;28;20765;-72
2021/07/09 04:20:29;;;;;;;8.33;6.13;;;;;;;;;;5055481;28;20488;-72
2021/07/09 04:22:57;;;;;;;9.20;7.33;;;;;;;;;;5039458;28;20501;-72
2021/07/09 04:25:25;;;;;;;23.23;7.03;;;;;;;;;;5036236;28;20461;-72
2021/07/09 04:27:53;;;;;;;13.17;8.13;;;;;;;;;;5038914;28;20458;-72
2021/07/09 04:30:22;;;;;;;9.73;6.53;;;;;;;;;;5037807;28;20450;-72
2021/07/09 04:32:50;;;;;;;8.60;7.60;;;;;;;;;;5038234;28;20458;-72
2021/07/09 04:35:18;;;;;;;11.83;7.73;;;;;;;;;;5037593;28;20923;-72
2021/07/09 04:37:46;;;;;;;10.90;6.80;;;;;;;;;;5037773;28;20488;-72
2021/07/09 04:40:15;;;;;;;9.20;7.50;;;;;;;;;;5038679;28;20516;-72
2021/07/09 04:42:43;;;;;;;10.87;7.67;;;;;;;;;;5038008;28;20524;-72
2021/07/09 04:45:11;;;;;;;18.93;7.63;;;;;;;;;;5039065;28;20438;-72
2021/07/09 04:47:40;;;;;;;8.40;7.00;;;;;;;;;;5038204;28;20847;-72
2021/07/09 04:50:09;;;;;;;11.37;7.10;;;;;;;;;;5038729;28;20527;-72
2021/07/09 04:52:36;;;;;;;9.53;7.90;;;;;;;;;;5037832;28;20442;-72
2021/07/09 04:55:05;;;;;;;9.00;6.47;;;;;;;;;;5037599;28;20455;-72
2021/07/09 04:57:33;;;;;;;8.50;6.17;;;;;;;;;;5038006;28;21024;-72
2021/07/09 05:00:01;;;;;;;9.23;6.77;;;;;;;;;;5037666;28;20466;-72
2021/07/09 05:02:29;;;;;;;15.33;6.77;;;;;;;;;;5049147;28;20454;-72
2021/07/09 05:04:58;;;;;;;11.13;6.87;;;;;;;;;;5057283;28;20456;-72
2021/07/09 05:07:26;;;;;;;7.63;6.93;;;;;;;;;;5057220;28;20485;-72
2021/07/09 05:09:54;;;;;;;8.07;7.07;;;;;;;;;;5056249;28;20811;-72
2021/07/09 05:12:23;;;;;;;14.03;7.90;;;;;;;;;;5056969;28;21041;-72
2021/07/09 05:14:50;;;;;;;7.87;6.83;;;;;;;;;;5056602;28;20464;-72
2021/07/09 05:17:18;;;;;;;9.57;7.40;;;;;;;;;;5056214;28;20481;-72
2021/07/09 05:19:46;;;;;;;12.27;6.00;;;;;;;;;;5056838;28;20453;-72
2021/07/09 05:22:15;;;;;;;13.10;6.23;;;;;;;;;;5056508;28;20445;-72
2021/07/09 05:24:43;;;;;;;7.33;5.93;;;;;;;;;;5053927;28;20453;-72
2021/07/09 05:27:11;;;;;;;7.30;6.30;;;;;;;;;;5055941;28;20454;-72
2021/07/09 05:29:39;;;;;;;6.80;5.77;;;;;;;;;;5053546;28;20538;-73
2021/07/09 05:32:07;;;;;;;14.83;6.33;;;;;;;;;;5054935;28;20453;-72
2021/07/09 05:34:36;;;;;;;8.70;5.40;;;;;;;;;;5056080;28;20461;-73
2021/07/09 05:37:04;;;;;;;10.60;5.27;;;;;;;;;;5055060;28;20481;-72
2021/07/09 05:39:34;;;;;;;7.30;6.40;;;;;;;;;;5045835;28;20969;-72
2021/07/09 05:42:02;;;;;;;9.03;5.13;;;;;;;;;;5052130;28;20668;-73
2021/07/09 05:44:30;;;;;;;6.33;4.97;;;;;;;;;;5042749;28;20522;-72
2021/07/09 05:46:58;;;;;;;7.53;5.57;;;;;;;;;;5036097;28;20458;-73
2021/07/09 05:49:27;;;;;;;8.13;4.47;;;;;;;;;;5057163;28;20535;-72
2021/07/09 05:51:54;;;;;;;7.53;4.57;;;;;;;;;;5055778;28;20476;-72
2021/07/09 05:54:25;;;;;;;5.73;5.13;;;;;;;;;;5053214;28;20553;-72
2021/07/09 05:56:55;;;;;;;8.97;4.60;;;;;;;;;;5050278;28;20474;-72
2021/07/09 05:59:22;;;;;;;5.87;5.20;;;;;;;;;;5035903;28;20538;-72
2021/07/09 06:01:50;;;;;;;4.97;4.17;;;;;;;;;;5041794;28;20493;-73
2021/07/09 06:04:19;;;;;;;8.80;4.17;;;;;;;;;;5056743;28;20457;-72
2021/07/09 06:06:46;;;;;;;5.80;5.30;;;;;;;;;;5057095;28;20449;-72
2021/07/09 06:09:15;;;;;;;4.10;3.70;;;;;;;;;;5055335;28;20442;-72
2021/07/09 06:11:43;;;;;;;6.80;4.80;;;;;;;;;;5057018;28;20586;-72
2021/07/09 06:14:12;;;;;;;7.17;5.10;;;;;;;;;;5053974;28;20480;-72
2021/07/09 06:16:47;;;;;;;6.70;4.93;;;;;;;;;;5055366;28;20940;-73
2021/07/09 06:19:15;;;;;;;5.63;4.30;;;;;;;;;;5055759;28;20535;-73
2021/07/09 06:21:47;;;;;;;6.50;4.13;;;;;;;;;;5056170;28;20493;-73
2021/07/09 06:24:17;;;;;;;6.83;4.07;;;;;;;;;;5056760;28;20457;-74
2021/07/09 06:26:45;;;;;;;7.80;4.23;;;;;;;;;;5055519;28;20485;-73
2021/07/09 06:29:15;;;;;;;5.10;4.60;;;;;;;;;;5055537;28;20449;-73
2021/07/09 06:31:44;;;;;;;9.20;4.47;;;;;;;;;;5051437;28;20457;-73
2021/07/09 06:34:11;;;;;;;5.40;3.90;;;;;;;;;;5048052;28;20454;-73
2021/07/09 06:36:42;;;;;;;5.20;4.50;;;;;;;;;;5053562;28;20465;-73
2021/07/09 06:39:14;;;;;;;6.07;4.60;;;;;;;;;;5055419;28;20481;-73
2021/07/09 06:41:49;;;;;;;6.40;4.20;;;;;;;;;;5053762;28;20536;-73
2021/07/09 06:44:18;;;;;;;4.63;3.97;;;;;;;;;;5037051;28;20918;-72
2021/07/09 06:46:46;;;;;;;7.53;4.57;;;;;;;;;;5053383;28;20461;-73
2021/07/09 06:49:15;;;;;;;6.77;4.30;;;;;;;;;;5055088;28;20449;-73
2021/07/09 06:51:43;;;;;;;12.03;4.87;;;;;;;;;;5041369;28;20568;-72
2021/07/09 06:54:14;;;;;;;5.73;4.70;;;;;;;;;;5044108;28;20951;-73
2021/07/09 06:56:41;;;;;;;5.00;3.57;;;;;;;;;;5051575;28;20856;-73
2021/07/09 06:59:13;;;;;;;5.70;3.63;;;;;;;;;;5052112;28;20481;-73
2021/07/09 07:01:49;;;;;;;5.17;4.10;;;;;;;;;;5053046;28;21082;-73
2021/07/09 07:04:20;;;;;;;4.20;3.37;;;;;;;;;;5054156;28;20449;-73
2021/07/09 07:06:52;;;;;;;4.57;3.70;;;;;;;;;;5053326;28;21203;-73
2021/07/09 07:09:21;;;;;;;3.90;3.13;;;;;;;;;;5050282;28;20544;-73
2021/07/09 07:11:49;;;;;;;7.13;2.87;;;;;;;;;;5053769;28;20964;-72
2021/07/09 07:14:17;;;;;;;4.90;3.07;;;;;;;;;;5052471;28;20742;-72
2021/07/09 07:16:46;;;;;;;6.27;3.67;;;;;;;;;;5054138;28;20477;-71
2021/07/09 07:19:15;;;;;;;7.13;3.20;;;;;;;;;;5055263;28;20971;-72
2021/07/09 07:21:53;;;;;;;9.27;3.73;;;;;;;;;;5055802;28;20457;-73
2021/07/09 07:24:22;;;;;;;4.70;3.40;;;;;;;;;;5019898;28;20460;-72
2021/07/09 07:26:50;;;;;;;6.10;3.60;;;;;;;;;;5052371;28;20541;-72
2021/07/09 07:29:18;;;;;;;5.40;3.80;;;;;;;;;;5053849;28;20492;-72
2021/07/09 07:31:48;;;;;;;5.37;4.13;;;;;;;;;;5053477;28;20557;-72
2021/07/09 07:34:16;;;;;;;3.50;3.20;;;;;;;;;;5052171;28;20453;-73
2021/07/09 07:36:44;;;;;;;4.80;3.40;;;;;;;;;;5053148;28;20480;-71
2021/07/09 07:39:12;;;;;;;5.70;4.70;;;;;;;;;;5052744;28;20477;-73
2021/07/09 07:41:47;;;;;;;6.30;4.03;;;;;;;;;;5050615;28;20490;-72
2021/07/09 07:44:19;;;;;;;5.10;3.60;;;;;;;;;;5053196;28;20858;-74
2021/07/09 07:46:52;;;;;;;4.13;3.77;;;;;;;;;;5054421;28;20464;-72
2021/07/09 07:49:19;;;;;;;5.70;3.00;;;;;;;;;;5053880;28;20450;-71
2021/07/09 07:51:48;;;;;;;7.50;2.80;;;;;;;;;;5046823;28;20454;-72
2021/07/09 07:54:16;;;;;;;6.40;3.90;;;;;;;;;;5033915;28;20482;-72
2021/07/09 07:56:44;;;;;;;2.77;2.50;;;;;;;;;;5034033;28;20454;-72
2021/07/09 07:59:12;;;;;;;10.03;3.03;;;;;;;;;;5034853;28;20492;-72
2021/07/09 08:01:41;;;;;;;5.77;3.17;;;;;;;;;;5048123;28;20449;-72
2021/07/09 08:04:11;;;;;;;11.17;7.47;;;;;;;;;;5060682;28;20549;-71
2021/07/09 08:06:40;;;;;;;10.10;3.50;;;;;;;;;;5068018;28;20481;-72
2021/07/09 08:09:11;;;;;;;7.33;4.03;;;;;;;;;;5068450;28;20449;-71
2021/07/09 08:11:39;;;;;;;5.90;3.20;;;;;;;;;;5058503;28;20473;-72
2021/07/09 08:14:07;;;;;;;4.80;3.10;;;;;;;;;;5058562;28;20461;-72
2021/07/09 08:16:37;;;;;;;3.43;2.10;;;;;;;;;;5058577;28;20461;-72
2021/07/09 08:19:05;;;;;;;6.50;2.77;;;;;;;;;;5057702;28;20563;-72
2021/07/09 08:21:38;;;;;;;6.17;2.80;;;;;;;;;;5056823;28;20496;-72
2021/07/09 08:24:07;;;;;;;5.30;2.40;;;;;;;;;;5056753;28;20896;-72
2021/07/09 08:26:35;;;;;;;8.70;2.60;;;;;;;;;;5058842;28;20457;-72
2021/07/09 08:29:03;;;;;;;7.83;3.00;;;;;;;;;;5058097;28;20437;-72
2021/07/09 08:31:31;;;;;;;4.90;3.47;;;;;;;;;;5056497;28;20561;-72
2021/07/09 08:34:00;;;;;;;4.70;2.70;;;;;;;;;;5056652;28;20458;-72
2021/07/09 08:36:28;;;;;;;4.57;2.53;;;;;;;;;;5057425;28;20458;-72
2021/07/09 08:39:02;;;;;;;5.13;3.03;;;;;;;;;;5051829;28;20558;-71
2021/07/09 08:41:32;;;;;;;5.73;2.77;;;;;;;;;;5051938;28;20457;-71
2021/07/09 08:44:02;;;;;;;6.33;2.73;;;;;;;;;;5038068;28;20450;-72
2021/07/09 08:46:32;;;;;;;7.43;2.53;;;;;;;;;;5038923;28;20454;-72
2021/07/09 08:49:00;;;;;;;6.47;2.43;;;;;;;;;;5053599;28;20446;-71
2021/07/09 08:51:27;;;;;;;8.23;2.70;;;;;;;;;;5058461;28;20457;-72
2021/07/09 08:53:56;;;;;;;5.83;2.00;;;;;;;;;;5060233;28;20460;-71
2021/07/09 08:56:30;;;;;;;4.73;2.70;;;;;;;;;;5058506;28;20464;-71
2021/07/09 08:58:59;;;;;;;5.50;3.07;;;;;;;;;;5061166;28;20515;-70
2021/07/09 09:01:26;;;;;;;4.97;2.90;;;;;;;;;;5056852;28;21083;-71
2021/07/09 09:04:06;;;;;;;6.87;3.87;;;;;;;;;;5058702;28;20446;-76
2021/07/09 09:06:35;;;;;;;9.33;2.90;;;;;;;;;;5057565;28;20461;-72
2021/07/09 09:09:24;;;;;;;10.50;3.10;;;;;;;;;;5059572;28;20508;-73
2021/07/09 09:12:19;;;;;;;6.40;3.40;;;;;;;;;;5054387;28;21053;-71
2021/07/09 09:14:56;;;;;;;5.70;3.50;;;;;;;;;;5037248;28;20505;-70
2021/07/09 09:17:25;;;;;;;7.43;3.37;;;;;;;;;;5057184;28;20838;-71
2021/07/09 09:20:07;;;;;;;5.83;3.17;;;;;;;;;;5045933;28;20538;-72
2021/07/09 09:22:56;;;;;;;7.50;3.13;;;;;;;;;;5055489;28;20463;-71
2021/07/09 09:25:26;;;;;;;7.03;2.60;;;;;;;;;;5054618;28;20920;-71
2021/07/09 09:28:07;;;;;;;4.93;2.70;;;;;;;;;;5055191;28;20465;-71
2021/07/09 09:30:38;;;;;;;4.40;2.40;;;;;;;;;;5056582;28;20458;-71
2021/07/09 09:33:16;;;;;;;5.43;2.73;;;;;;;;;;5055451;28;20445;-72
2021/07/09 09:35:53;;;;;;;4.40;2.80;;;;;;;;;;5053406;28;20461;-73
2021/07/09 09:38:32;;;;;;;4.73;2.77;;;;;;;;;;5055689;28;20903;-71
2021/07/09 09:41:04;;;;;;;5.80;3.30;;;;;;;;;;5055622;28;20864;-72
2021/07/09 09:43:39;;;;;;;4.77;3.33;;;;;;;;;;5055160;28;20457;-71
2021/07/09 09:46:08;;;;;;;5.90;3.60;;;;;;;;;;5047429;28;20472;-70
2021/07/09 09:48:41;;;;;;;6.20;2.97;;;;;;;;;;5055367;28;20885;-71
2021/07/09 09:51:26;;;;;;;5.70;3.27;;;;;;;;;;5055843;28;20913;-74
2021/07/09 09:53:55;;;;;;;7.00;3.53;;;;;;;;;;5053620;28;20803;-71
2021/07/09 09:56:37;;;;;;;5.93;3.60;;;;;;;;;;5053725;28;20819;-73
2021/07/09 09:59:16;;;;;;;5.30;3.60;;;;;;;;;;5055359;28;20478;-72
2021/07/09 10:01:56;;;;;;;5.83;4.00;;;;;;;;;;5055923;28;20518;-72
2021/07/09 10:04:25;;;;;;;7.37;4.43;;;;;;;;;;5055420;28;20445;-72
2021/07/09 10:06:54;;;;;;;8.53;4.60;;;;;;;;;;5050155;28;20454;-72
2021/07/09 10:09:23;;;;;;;7.57;6.70;;;;;;;;;;5035584;28;20558;-73
2021/07/09 10:11:58;;;;;;;6.43;5.00;;;;;;;;;;5035124;28;20458;-71
2021/07/09 10:14:30;;;;;;;7.37;5.30;;;;;;;;;;5039965;28;20470;-71
2021/07/09 10:17:13;;;;;;;9.80;5.00;;;;;;;;;;5049429;28;20547;-72
2021/07/09 10:19:42;;;;;;;7.23;4.97;;;;;;;;;;5050256;28;20481;-72
2021/07/09 10:22:12;;;;;;;7.40;5.30;;;;;;;;;;5055491;28;20461;-73
2021/07/09 10:24:43;;;;;;;9.90;7.40;;;;;;;;;;5055284;28;20527;-72
2021/07/09 10:27:12;;;;;;;11.60;5.10;;;;;;;;;;5053914;28;20465;-73
2021/07/09 10:29:55;;;;;;;6.83;4.93;;;;;;;;;;5053863;28;20446;-73
2021/07/09 10:32:35;;;;;;;8.57;6.10;;;;;;;;;;5055295;28;20515;-72
2021/07/09 10:35:04;;;;;;;7.57;4.83;;;;;;;;;;5054735;28;20540;-72
2021/07/09 10:37:32;;;;;;;8.83;5.53;;;;;;;;;;5054012;28;20465;-73
2021/07/09 10:40:06;;;;;;;13.20;5.40;;;;;;;;;;5054426;28;20572;-73
2021/07/09 10:42:52;;;;;;;7.77;6.77;;;;;;;;;;5055100;28;21064;-74
2021/07/09 10:45:32;;;;;;;13.97;7.37;;;;;;;;;;5054319;28;20510;-73
2021/07/09 10:48:10;;;;;;;8.60;6.43;;;;;;;;;;5055891;28;20531;-73
2021/07/09 10:50:39;;;;;;;7.73;6.80;;;;;;;;;;5054680;28;20454;-73
2021/07/09 10:53:08;;;;;;;8.83;5.60;;;;;;;;;;5054850;28;20465;-73
2021/07/09 10:55:43;;;;;;;8.63;6.57;;;;;;;;;;5054202;28;20518;-73
2021/07/09 10:58:21;;;;;;;9.63;6.03;;;;;;;;;;5053358;28;20465;-72
2021/07/09 11:00:50;;;;;;;8.40;6.67;;;;;;;;;;5054622;28;20913;-72
2021/07/09 11:03:41;;;;;;;9.67;6.70;;;;;;;;;;5053681;28;21082;-72
2021/07/09 11:06:22;;;;;;;7.53;5.93;;;;;;;;;;5040371;28;20447;-73
2021/07/09 11:09:17;;;;;;;9.73;6.17;;;;;;;;;;5054065;28;20727;-71
2021/07/09 11:11:52;;;;;;;7.70;6.00;;;;;;;;;;5038042;28;20442;-71
2021/07/09 11:14:21;;;;;;;10.90;6.77;;;;;;;;;;5033768;28;20454;-72
2021/07/09 11:16:58;;;;;;;6.47;5.60;;;;;;;;;;5049560;28;20568;-72
2021/07/09 11:19:30;;;;;;;7.87;6.40;;;;;;;;;;5053520;28;20488;-71
2021/07/09 11:22:08;;;;;;;9.87;6.00;;;;;;;;;;5053075;28;20903;-72
2021/07/09 11:24:37;;;;;;;8.90;7.00;;;;;;;;;;5052472;28;20480;-71
2021/07/09 11:27:06;;;;;;;8.43;6.20;;;;;;;;;;5052349;28;20959;-72
2021/07/09 11:29:41;;;;;;;10.00;6.40;;;;;;;;;;5051971;28;20453;-72
2021/07/09 11:32:18;;;;;;;13.87;7.03;;;;;;;;;;5055056;28;20518;-72
2021/07/09 11:34:49;;;;;;;8.20;6.20;;;;;;;;;;5055496;28;20467;-72
2021/07/09 11:37:20;;;;;;;9.33;6.10;;;;;;;;;;5053058;28;20461;-72
2021/07/09 11:39:49;;;;;;;7.60;6.23;;;;;;;;;;5056727;28;20493;-72
2021/07/09 11:42:17;;;;;;;10.27;7.10;;;;;;;;;;5053897;28;20751;-72
2021/07/09 11:44:48;;;;;;;8.00;6.10;;;;;;;;;;5056256;28;20450;-72
2021/07/09 11:47:21;;;;;;;10.00;7.40;;;;;;;;;;5054723;28;20465;-73
2021/07/09 11:49:49;;;;;;;7.47;6.30;;;;;;;;;;5056343;28;20456;-73
2021/07/09 11:52:21;;;;;;;11.07;5.80;;;;;;;;;;5050833;28;20502;-73
2021/07/09 11:55:07;;;;;;;7.50;5.90;;;;;;;;;;5052244;28;20453;-72
2021/07/09 11:57:37;;;;;;;10.17;5.50;;;;;;;;;;5054240;28;20457;-73
2021/07/09 12:00:08;;;;;;;7.53;6.13;;;;;;;;;;5039479;28;20593;-73
2021/07/09 12:02:40;;;;;;;8.00;6.73;;;;;;;;;;5035848;28;20461;-71
2021/07/09 12:05:14;;;;;;;8.93;5.83;;;;;;;;;;5036310;28;20847;-72
2021/07/09 12:07:43;;;;;;;7.97;6.20;;;;;;;;;;5034163;28;20465;-72
2021/07/09 12:10:39;;;;;;;12.17;5.87;;;;;;;;;;5035667;28;20438;-71
2021/07/09 12:13:29;;;;;;;10.50;7.10;;;;;;;;;;5036407;28;20782;-73
2021/07/09 12:19:21;;;;;;;10.63;6.83;;;;;;;;;;5092126;27;20495;-71
2021/07/09 12:21:56;;;;;;;10.00;7.63;;;;;;;;;;5092304;28;20454;-71
2021/07/09 12:24:26;;;;;;;11.47;7.30;;;;;;;;;;5093432;28;20551;-70
2021/07/09 12:26:55;;;;;;;9.73;6.47;;;;;;;;;;5093021;28;20464;-71
2021/07/09 12:29:31;;;;;;;11.30;8.00;;;;;;;;;;5093733;28;20436;-70
2021/07/09 12:32:02;;;;;;;11.93;7.00;;;;;;;;;;5085455;28;20451;-71
2021/07/09 12:34:32;;;;;;;10.43;8.03;;;;;;;;;;5073305;28;20459;-72
2021/07/09 12:37:09;;;;;;;8.60;7.70;;;;;;;;;;5073349;28;20511;-71
2021/07/09 12:39:37;;;;;;;11.03;7.80;;;;;;;;;;5069882;28;20468;-71
2021/07/09 12:42:12;;;;;;;9.87;7.70;;;;;;;;;;5072638;28;20520;-71
2021/07/09 12:44:53;;;;;;;10.50;7.73;;;;;;;;;;5071445;28;20452;-72
2021/07/09 12:47:28;;;;;;;9.23;7.87;;;;;;;;;;5070492;28;20445;-72
2021/07/09 12:53:01;;;;;;;10.30;8.70;;;;;;;;;;5095203;28;20543;-72
2021/07/09 12:55:47;;;;;;;13.03;9.57;;;;;;;;;;5094310;28;20596;-72
2021/07/09 12:58:21;;;;;;;10.20;8.50;;;;;;;;;;5092861;28;20840;-72
2021/07/09 13:00:51;;;;;;;11.67;9.60;;;;;;;;;;5094830;28;20448;-72
2021/07/09 13:04:00;;;;;;;10.80;9.40;;;;;;;;;;5063959;28;20442;-73
2021/07/09 13:06:35;;;;;;;10.60;8.23;;;;;;;;;;5053645;28;20462;-73
2021/07/09 13:09:24;;;;;;;16.13;10.03;;;;;;;;;;5054521;28;20507;-72
2021/07/09 13:12:04;;;;;;;11.70;9.57;;;;;;;;;;5054156;28;20485;-72
2021/07/09 13:14:41;;;;;;;12.00;9.17;;;;;;;;;;5064317;28;20476;-72
2021/07/09 13:17:17;;;;;;;10.33;9.17;;;;;;;;;;5073816;28;20478;-73
2021/07/09 13:19:59;;;;;;;10.37;9.37;;;;;;;;;;5072880;28;20711;-74
2021/07/09 13:22:34;;;;;;;11.80;9.60;;;;;;;;;;5074538;28;20884;-73
2021/07/09 13:25:18;;;;;;;14.30;9.70;;;;;;;;;;5071341;28;20456;-74
2021/07/09 13:27:56;;;;;;;10.63;9.07;;;;;;;;;;5070892;28;20464;-73
2021/07/09 13:30:44;;;;;;;11.63;10.17;;;;;;;;;;5070689;28;20468;-74
2021/07/09 13:33:16;;;;;;;9.33;8.30;;;;;;;;;;5060512;28;20506;-73
2021/07/09 13:35:54;;;;;;;11.53;10.33;;;;;;;;;;5085786;28;20465;-73
2021/07/09 13:38:22;;;;;;;13.40;10.40;;;;;;;;;;5085214;28;20484;-73
2021/07/09 13:40:52;;;;;;;11.57;9.67;;;;;;;;;;5071038;28;20461;-74
2021/07/09 13:43:20;;;;;;;15.43;10.47;;;;;;;;;;5070546;28;20522;-74
2021/07/09 13:45:49;;;;;;;13.07;11.30;;;;;;;;;;5072146;28;20456;-74
2021/07/09 13:48:17;;;;;;;12.00;10.80;;;;;;;;;;5070471;28;20783;-73
2021/07/09 13:50:47;;;;;;;16.43;11.10;;;;;;;;;;5071764;28;20476;-71
2021/07/09 13:53:15;;;;;;;13.90;10.07;;;;;;;;;;5069017;28;20790;-72
2021/07/09 13:58:35;;;;;;;11.40;10.20;;;;;;;;;;5070733;28;20919;-71
2021/07/09 14:01:05;;;;;;;12.60;11.30;;;;;;;;;;5075631;28;20464;-74
2021/07/09 14:03:36;;;;;;;13.20;10.83;;;;;;;;;;5058049;28;20453;-74
2021/07/09 14:06:05;;;;;;;11.83;10.27;;;;;;;;;;5058362;28;20461;-73
2021/07/09 14:09:01;;;;;;;11.30;9.60;;;;;;;;;;5058129;28;20476;-74
2021/07/09 14:11:29;;;;;;;17.50;11.40;;;;;;;;;;5057864;28;20485;-73
2021/07/09 14:14:17;;;;;;;12.20;10.70;;;;;;;;;;5057029;28;20469;-73
2021/07/09 14:16:47;;;;;;;10.40;8.90;;;;;;;;;;5058188;28;20858;-74
2021/07/09 14:19:25;;;;;;;11.63;9.97;;;;;;;;;;5059572;28;20453;-74
2021/07/09 14:21:57;;;;;;;11.50;10.30;;;;;;;;;;5059340;28;20468;-73
2021/07/09 14:24:25;;;;;;;11.73;10.40;;;;;;;;;;5058176;28;20464;-73
2021/07/09 14:26:55;;;;;;;11.70;10.47;;;;;;;;;;5059223;28;20457;-73
2021/07/09 14:29:39;;;;;;;19.70;16.60;;;;;;;;;;5058351;28;20460;-74
2021/07/09 14:32:09;;;;;;;12.23;11.00;;;;;;;;;;5058829;28;20485;-73
2021/07/09 14:34:58;;;;;;;;;;;;;;;;;;;;;
2021/07/09 14:37:32;;;;;;;11.70;10.13;;;;;;;;;;5055750;28;20861;-74
2021/07/09 14:40:08;;;;;;;13.60;11.40;;;;;;;;;;5059042;28;20449;-75
2021/07/09 14:45:40;;;;;;;18.13;12.30;;;;;;;;;;5060631;28;20463;-73
2021/07/09 14:51:23;;;;;;;17.27;13.17;;;;;;;;;;4982734;28;20453;-74
2021/07/09 14:56:43;;;;;;;15.83;13.00;;;;;;;;;;5037680;28;20454;-74
2021/07/09 14:59:11;;;;;;;15.47;13.33;;;;;;;;;;5039700;28;20459;-73
2021/07/09 15:01:52;;;;;;;18.33;13.30;;;;;;;;;;5037163;28;20461;-75
2021/07/09 15:04:30;;;;;;;11.90;10.20;;;;;;;;;;5041595;28;20863;-74
2021/07/09 15:07:04;;;;;;;9.07;5.40;;;;;;;;;;5054533;28;20469;-74
2021/07/09 15:09:34;;;;;;;7.50;4.70;;;;;;;;;;5057463;28;20485;-72
2021/07/09 15:12:12;;;;;;;6.30;5.23;;;;;;;;;;5058909;28;20888;-73
2021/07/09 15:14:40;;;;;;;5.53;4.10;;;;;;;;;;5057941;28;20752;-73
2021/07/09 15:17:13;;;;;;;9.80;4.00;;;;;;;;;;5057579;28;20450;-73
2021/07/09 15:19:42;;;;;;;6.43;4.37;;;;;;;;;;5058177;28;20716;-74
2021/07/09 15:22:09;;;;;;;9.20;5.07;;;;;;;;;;5058644;28;20445;-74